Time;durP1;ratioP1;P1;durP2;ratioP2;P2;SDS_P1;SDS_P2;PMS_P1;PMS_P2;Temp;Humidity;BMP_temperature;BMP_pressure;BME280_temperature;BME280_humidity;BME280_pressure;Samples;Min_cycle;Max_cycle;Signal;HPM_P1;HPM_P2
2022/04/14 00:02:27;;;;;;;25.10;17.20;;;13.10;99.90;;;;;;4895111;29;20283;-60
2022/04/14 00:04:55;;;;;;;23.27;17.10;;;12.90;99.90;;;;;;4896903;29;20244;-59
2022/04/14 00:07:24;;;;;;;23.00;17.33;;;12.80;99.90;;;;;;4896922;29;20769;-60
2022/04/14 00:09:52;;;;;;;24.37;17.53;;;12.70;99.90;;;;;;4895864;29;20259;-59
2022/04/14 00:12:22;;;;;;;21.97;16.27;;;12.80;99.90;;;;;;4902775;29;20239;-60
2022/04/14 00:14:50;;;;;;;25.30;17.17;;;12.80;99.90;;;;;;4895312;29;20335;-60
2022/04/14 00:17:18;;;;;;;24.17;17.87;;;12.70;99.90;;;;;;4895402;29;20673;-59
2022/04/14 00:19:47;;;;;;;22.27;17.47;;;12.70;99.90;;;;;;4900373;29;20759;-59
2022/04/14 00:22:15;;;;;;;26.07;17.80;;;12.70;99.90;;;;;;4898241;29;20720;-59
2022/04/14 00:24:43;;;;;;;23.77;16.67;;;12.70;99.90;;;;;;4895816;29;20287;-58
2022/04/14 00:27:12;;;;;;;22.90;17.77;;;12.70;99.90;;;;;;4894279;29;20233;-60
2022/04/14 00:29:41;;;;;;;23.43;17.00;;;12.70;99.90;;;;;;4881308;29;20236;-60
2022/04/14 00:32:10;;;;;;;23.70;17.17;;;12.60;99.90;;;;;;4891783;29;20255;-59
2022/04/14 00:34:38;;;;;;;23.03;17.30;;;12.60;99.90;;;;;;4876451;29;20245;-59
2022/04/14 00:37:07;;;;;;;22.60;16.83;;;12.60;99.90;;;;;;4895118;29;20236;-59
2022/04/14 00:39:35;;;;;;;23.67;16.60;;;12.50;99.90;;;;;;4895076;29;20247;-59
2022/04/14 00:42:09;;;;;;;22.27;15.97;;;12.50;99.90;;;;;;4901186;29;20329;-59
2022/04/14 00:44:38;;;;;;;22.57;16.23;;;12.50;99.90;;;;;;4887332;29;20253;-59
2022/04/14 00:47:10;;;;;;;19.40;14.40;;;12.50;99.90;;;;;;4897086;29;20236;-59
2022/04/14 00:49:39;;;;;;;19.07;15.50;;;12.70;99.90;;;;;;4876773;29;20297;-59
2022/04/14 00:52:09;;;;;;;20.60;15.33;;;12.70;99.90;;;;;;4898901;29;20252;-59
2022/04/14 00:54:37;;;;;;;17.33;14.23;;;12.60;99.90;;;;;;4876609;29;20244;-59
2022/04/14 00:57:06;;;;;;;21.30;15.10;;;12.60;99.90;;;;;;4894980;29;20241;-59
2022/04/14 00:59:34;;;;;;;18.83;13.83;;;12.60;99.90;;;;;;4894917;29;20307;-60
2022/04/14 01:02:03;;;;;;;16.47;12.73;;;12.60;99.90;;;;;;4895029;29;20245;-59
2022/04/14 01:04:33;;;;;;;17.90;13.10;;;12.50;99.90;;;;;;4894918;29;20244;-59
2022/04/14 01:07:02;;;;;;;21.40;14.00;;;12.40;99.90;;;;;;4898488;29;20252;-59
2022/04/14 01:09:30;;;;;;;18.07;13.70;;;12.40;99.90;;;;;;4894975;29;20240;-60
2022/04/14 01:11:58;;;;;;;17.53;12.93;;;12.30;99.90;;;;;;4901704;29;20250;-59
2022/04/14 01:14:28;;;;;;;16.10;13.73;;;12.40;99.90;;;;;;4898149;29;20299;-60
2022/04/14 01:16:57;;;;;;;16.13;12.43;;;12.40;99.90;;;;;;4898520;29;20275;-59
2022/04/14 01:19:26;;;;;;;17.90;12.70;;;12.30;99.90;;;;;;4897704;29;20305;-59
2022/04/14 01:22:03;;;;;;;20.50;13.33;;;12.30;99.90;;;;;;4902132;29;20244;-60
2022/04/14 01:24:34;;;;;;;14.33;11.60;;;12.30;99.90;;;;;;4898016;29;20248;-59
2022/04/14 01:27:03;;;;;;;14.67;11.30;;;12.50;99.90;;;;;;4900179;29;20609;-59
2022/04/14 01:29:31;;;;;;;16.80;11.20;;;12.40;99.90;;;;;;4897747;29;20603;-59
2022/04/14 01:32:01;;;;;;;16.53;12.03;;;12.30;99.90;;;;;;4901639;29;20239;-59
2022/04/14 01:34:30;;;;;;;14.73;11.67;;;12.40;99.90;;;;;;4897849;29;20248;-59
2022/04/14 01:37:00;;;;;;;15.43;11.20;;;12.30;99.90;;;;;;4901675;29;20252;-59
2022/04/14 01:39:28;;;;;;;14.90;11.87;;;12.30;99.90;;;;;;4897834;29;20604;-59
2022/04/14 01:41:58;;;;;;;14.97;11.97;;;12.20;99.90;;;;;;4903141;29;20247;-59
2022/04/14 01:44:26;;;;;;;15.70;11.97;;;12.20;99.90;;;;;;4899115;29;20256;-60
2022/04/14 01:46:54;;;;;;;16.37;11.90;;;12.20;99.90;;;;;;4899615;29;20259;-60
2022/04/14 01:49:22;;;;;;;16.47;11.50;;;12.10;99.90;;;;;;4897748;29;20264;-59
2022/04/14 01:51:50;;;;;;;15.40;11.23;;;12.10;99.90;;;;;;4901255;29;20279;-59
2022/04/14 01:54:18;;;;;;;14.43;12.07;;;12.10;99.90;;;;;;4897862;29;20249;-59
2022/04/14 01:56:47;;;;;;;14.17;11.33;;;12.10;99.90;;;;;;4897465;29;20300;-59
2022/04/14 01:59:17;;;;;;;16.53;12.43;;;12.10;99.90;;;;;;4898527;29;20585;-59
2022/04/14 02:01:45;;;;;;;15.40;11.83;;;12.00;99.90;;;;;;4897086;29;20260;-59
2022/04/14 02:04:13;;;;;;;14.83;12.03;;;12.00;99.90;;;;;;4897787;29;20260;-59
2022/04/14 02:06:42;;;;;;;16.50;12.40;;;12.00;99.90;;;;;;4899099;29;20247;-59
2022/04/14 02:09:10;;;;;;;15.83;12.17;;;12.00;99.90;;;;;;4897691;29;20243;-59
2022/04/14 02:11:38;;;;;;;15.53;12.40;;;12.00;99.90;;;;;;4900025;29;20239;-60
2022/04/14 02:14:06;;;;;;;16.10;12.13;;;11.90;99.90;;;;;;4901318;29;20245;-60
2022/04/14 02:16:36;;;;;;;15.03;12.13;;;12.00;99.90;;;;;;4896758;29;20252;-59
2022/04/14 02:19:04;;;;;;;17.37;13.10;;;12.00;99.90;;;;;;4896952;29;20248;-59
2022/04/14 02:21:32;;;;;;;16.97;12.87;;;12.00;99.90;;;;;;4899843;29;20613;-59
2022/04/14 02:24:00;;;;;;;16.60;13.53;;;12.00;99.90;;;;;;4897354;29;20244;-60
2022/04/14 02:26:28;;;;;;;16.13;12.27;;;12.00;99.90;;;;;;4898547;29;20243;-59
2022/04/14 02:28:56;;;;;;;16.50;11.90;;;12.00;99.90;;;;;;4897216;29;20242;-60
2022/04/14 02:31:24;;;;;;;17.63;12.53;;;12.00;99.90;;;;;;4897580;29;20243;-58
2022/04/14 02:33:54;;;;;;;17.97;13.43;;;11.90;99.90;;;;;;4896768;29;20247;-59
2022/04/14 02:36:23;;;;;;;18.07;13.67;;;12.00;99.90;;;;;;4900381;29;20245;-59
2022/04/14 02:38:51;;;;;;;21.50;14.00;;;12.10;99.90;;;;;;4896984;29;20259;-59
2022/04/14 02:41:19;;;;;;;16.57;13.20;;;12.20;99.90;;;;;;4897047;29;20280;-57
2022/04/14 02:43:49;;;;;;;16.47;12.77;;;12.10;99.90;;;;;;4903057;29;20250;-59
2022/04/14 02:46:18;;;;;;;18.90;13.37;;;12.10;99.90;;;;;;4898494;29;20789;-59
2022/04/14 02:48:46;;;;;;;20.50;14.40;;;12.00;99.90;;;;;;4896507;29;20747;-60
2022/04/14 02:51:15;;;;;;;18.23;13.67;;;12.00;99.90;;;;;;4900671;29;20252;-59
2022/04/14 02:53:43;;;;;;;20.87;15.13;;;12.00;99.90;;;;;;4896884;29;20743;-59
2022/04/14 02:56:11;;;;;;;17.23;13.27;;;11.90;99.90;;;;;;4896882;29;20240;-59
2022/04/14 02:58:39;;;;;;;18.90;14.17;;;11.80;99.90;;;;;;4888883;29;20252;-60
2022/04/14 03:01:07;;;;;;;18.87;13.70;;;11.80;99.90;;;;;;4901005;29;20236;-59
2022/04/14 03:03:36;;;;;;;18.63;13.43;;;11.80;99.90;;;;;;4895686;29;20245;-59
2022/04/14 03:06:04;;;;;;;19.43;14.93;;;11.80;99.90;;;;;;4897209;29;20256;-59
2022/04/14 03:08:33;;;;;;;21.33;15.37;;;11.80;99.90;;;;;;4896746;29;20302;-59
2022/04/14 03:11:02;;;;;;;22.73;16.33;;;11.70;99.90;;;;;;4896027;29;20256;-59
2022/04/14 03:13:30;;;;;;;20.77;15.43;;;11.80;99.90;;;;;;4903200;29;20243;-59
2022/04/14 03:15:58;;;;;;;23.50;16.67;;;11.70;99.90;;;;;;4895829;29;20262;-59
2022/04/14 03:18:26;;;;;;;21.97;16.40;;;11.70;99.90;;;;;;4895981;29;20716;-60
2022/04/14 03:20:54;;;;;;;24.23;17.53;;;11.70;99.90;;;;;;4899768;29;20271;-60
2022/04/14 03:23:24;;;;;;;23.90;17.60;;;11.70;99.90;;;;;;4895862;29;20597;-60
2022/04/14 03:25:53;;;;;;;23.43;17.03;;;11.60;99.90;;;;;;4895889;29;20247;-60
2022/04/14 03:28:21;;;;;;;23.00;16.57;;;11.60;99.90;;;;;;4897940;29;20636;-59
2022/04/14 03:30:50;;;;;;;23.03;17.67;;;11.60;99.90;;;;;;4896907;29;20582;-60
2022/04/14 03:33:18;;;;;;;24.03;17.30;;;11.60;99.90;;;;;;4895544;29;20248;-60
2022/04/14 03:35:46;;;;;;;24.47;17.60;;;11.60;99.90;;;;;;4899158;29;20248;-60
2022/04/14 03:38:14;;;;;;;23.87;17.70;;;11.60;99.90;;;;;;4896330;29;20247;-59
2022/04/14 03:41:04;;;;;;;25.63;19.17;;;11.60;99.90;;;;;;4895789;29;20300;-59
2022/04/14 03:43:33;;;;;;;23.73;17.90;;;11.60;99.90;;;;;;4902798;29;20298;-59
2022/04/14 03:46:01;;;;;;;26.00;18.80;;;11.60;99.90;;;;;;4896107;29;20244;-60
2022/04/14 03:48:30;;;;;;;26.07;18.13;;;11.60;99.90;;;;;;4896396;29;20263;-59
2022/04/14 03:50:58;;;;;;;23.50;17.43;;;11.50;99.90;;;;;;4899693;29;20247;-60
2022/04/14 03:53:26;;;;;;;26.07;18.10;;;11.50;99.90;;;;;;4895429;29;20251;-60
2022/04/14 03:55:54;;;;;;;25.70;19.37;;;11.50;99.90;;;;;;4895881;29;20719;-59
2022/04/14 03:58:23;;;;;;;24.67;18.77;;;11.50;99.90;;;;;;4895386;29;20746;-60
2022/04/14 04:00:52;;;;;;;23.13;18.10;;;11.50;99.90;;;;;;4899995;29;20252;-60
2022/04/14 04:03:20;;;;;;;26.60;17.50;;;11.50;99.90;;;;;;4893578;29;20240;-58
2022/04/14 04:05:48;;;;;;;25.60;17.20;;;11.50;99.90;;;;;;4895282;29;20247;-60
2022/04/14 04:08:17;;;;;;;24.40;18.37;;;11.50;99.90;;;;;;4897469;29;20249;-59
2022/04/14 04:10:45;;;;;;;22.20;17.13;;;11.50;99.90;;;;;;4895192;29;20256;-60
2022/04/14 04:13:13;;;;;;;23.40;17.67;;;11.50;99.90;;;;;;4903345;29;20244;-59
2022/04/14 04:15:43;;;;;;;24.77;17.43;;;11.50;99.90;;;;;;4895206;29;20241;-59
2022/04/14 04:18:11;;;;;;;25.13;19.37;;;11.50;99.90;;;;;;4895729;29;20244;-60
2022/04/14 04:20:39;;;;;;;23.70;18.23;;;11.50;99.90;;;;;;4903451;29;20235;-59
2022/04/14 04:23:07;;;;;;;25.20;18.73;;;11.50;99.90;;;;;;4895524;29;20586;-60
2022/04/14 04:25:36;;;;;;;25.80;18.47;;;11.40;99.90;;;;;;4895197;29;20249;-60
2022/04/14 04:28:05;;;;;;;28.93;20.47;;;11.40;99.90;;;;;;4897164;29;20252;-59
2022/04/14 04:30:33;;;;;;;27.60;20.30;;;11.40;99.90;;;;;;4898525;29;20264;-59
2022/04/14 04:33:05;;;;;;;27.40;20.40;;;11.40;99.90;;;;;;4894880;29;20256;-60
2022/04/14 04:35:33;;;;;;;25.17;18.90;;;11.40;99.90;;;;;;4895269;29;20256;-59
2022/04/14 04:38:01;;;;;;;25.10;18.17;;;11.40;99.90;;;;;;4895324;29;20268;-60
2022/04/14 04:40:29;;;;;;;27.93;19.50;;;11.40;99.90;;;;;;4898519;29;20243;-59
2022/04/14 04:42:57;;;;;;;28.23;19.13;;;11.40;99.90;;;;;;4902708;29;20729;-60
2022/04/14 04:45:26;;;;;;;26.07;19.67;;;11.40;99.90;;;;;;4896222;29;20254;-58
2022/04/14 04:47:54;;;;;;;28.40;19.83;;;11.30;99.90;;;;;;4897659;29;20246;-60
2022/04/14 04:50:23;;;;;;;24.97;18.43;;;11.30;99.90;;;;;;4898934;29;20242;-59
2022/04/14 04:52:51;;;;;;;27.63;20.07;;;11.30;99.90;;;;;;4898531;29;20256;-59
2022/04/14 04:55:19;;;;;;;24.13;17.93;;;11.30;99.90;;;;;;4898844;29;20240;-60
2022/04/14 04:57:48;;;;;;;29.60;21.40;;;11.30;99.90;;;;;;4898681;29;20665;-60
2022/04/14 05:00:16;;;;;;;26.37;19.57;;;11.30;99.90;;;;;;4902706;29;20326;-60
2022/04/14 05:02:45;;;;;;;26.53;20.60;;;11.30;99.90;;;;;;4898668;29;20274;-60
2022/04/14 05:05:13;;;;;;;26.37;18.83;;;11.30;99.90;;;;;;4898676;29;20273;-59
2022/04/14 05:07:42;;;;;;;25.43;18.60;;;11.30;99.90;;;;;;4898159;29;20258;-60
2022/04/14 05:10:10;;;;;;;27.93;19.97;;;11.30;99.90;;;;;;4898199;29;20242;-60
2022/04/14 05:12:39;;;;;;;25.17;18.30;;;11.30;99.90;;;;;;4898440;29;20315;-59
2022/04/14 05:15:08;;;;;;;27.17;19.03;;;11.30;99.90;;;;;;4898426;29;20237;-60
2022/04/14 05:17:36;;;;;;;23.77;18.63;;;11.30;99.90;;;;;;4898079;29;20777;-60
2022/04/14 05:20:05;;;;;;;27.40;18.90;;;11.40;99.90;;;;;;4898529;29;20255;-60
2022/04/14 05:22:34;;;;;;;27.37;19.13;;;11.30;99.90;;;;;;4897954;29;20585;-60
2022/04/14 05:25:03;;;;;;;24.93;19.23;;;11.30;99.90;;;;;;4898290;29;20326;-60
2022/04/14 05:27:31;;;;;;;24.87;17.87;;;11.40;99.90;;;;;;4899592;29;20653;-59
2022/04/14 05:29:59;;;;;;;23.83;17.40;;;11.30;99.90;;;;;;4897966;29;20332;-60
2022/04/14 05:32:27;;;;;;;22.63;17.13;;;11.30;99.90;;;;;;4897482;29;20248;-59
2022/04/14 05:34:56;;;;;;;20.70;16.03;;;11.30;99.90;;;;;;4898060;29;20272;-59
2022/04/14 05:37:26;;;;;;;25.37;17.97;;;11.40;99.90;;;;;;4897674;29;20240;-60
2022/04/14 05:39:54;;;;;;;21.80;17.20;;;11.50;99.90;;;;;;4897802;29;20348;-60
2022/04/14 05:42:23;;;;;;;21.57;16.07;;;11.50;99.90;;;;;;4897522;29;20274;-59
2022/04/14 05:44:51;;;;;;;20.07;15.53;;;11.50;99.90;;;;;;4897787;29;20268;-60
2022/04/14 05:47:23;;;;;;;24.97;17.13;;;11.50;99.90;;;;;;4899516;29;20277;-59
2022/04/14 05:49:52;;;;;;;21.80;16.03;;;11.50;99.90;;;;;;4899011;29;20724;-60
2022/04/14 05:52:22;;;;;;;20.53;14.63;;;11.40;99.90;;;;;;4899884;29;20239;-59
2022/04/14 05:54:50;;;;;;;20.13;15.33;;;11.60;99.90;;;;;;4898195;29;20323;-60
2022/04/14 05:57:22;;;;;;;19.97;15.33;;;11.60;99.90;;;;;;4899945;29;20232;-59
2022/04/14 05:59:51;;;;;;;18.27;14.67;;;11.60;99.90;;;;;;4897337;29;20260;-60
2022/04/14 06:02:19;;;;;;;18.43;14.97;;;11.70;99.90;;;;;;4897350;29;20251;-59
2022/04/14 06:04:48;;;;;;;19.67;13.97;;;11.70;99.90;;;;;;4897233;29;20259;-59
2022/04/14 06:07:16;;;;;;;20.60;14.80;;;11.70;99.90;;;;;;4897224;29;20698;-59
2022/04/14 06:09:44;;;;;;;20.73;15.20;;;11.80;99.90;;;;;;4897690;29;20244;-59
2022/04/14 06:12:12;;;;;;;18.10;14.27;;;11.70;99.90;;;;;;4897575;29;20235;-59
2022/04/14 06:14:51;;;;;;;20.87;14.97;;;11.70;99.90;;;;;;4896943;29;20251;-59
2022/04/14 06:17:19;;;;;;;18.17;14.83;;;11.70;99.90;;;;;;4897097;29;20240;-59
2022/04/14 06:19:47;;;;;;;17.67;14.70;;;11.80;99.90;;;;;;4902457;29;20263;-59
2022/04/14 06:22:15;;;;;;;18.27;13.90;;;11.80;99.90;;;;;;4900496;29;20582;-59
2022/04/14 06:24:43;;;;;;;19.43;14.50;;;11.90;99.90;;;;;;4897111;29;20639;-59
2022/04/14 06:27:11;;;;;;;18.37;13.50;;;12.00;99.90;;;;;;4899202;29;20246;-60
2022/04/14 06:29:39;;;;;;;18.33;14.40;;;11.90;99.90;;;;;;4896748;29;20255;-59
2022/04/14 06:32:10;;;;;;;17.57;14.30;;;12.00;99.90;;;;;;4896984;29;20662;-59
2022/04/14 06:34:43;;;;;;;17.70;14.53;;;11.90;99.90;;;;;;4878293;29;20264;-59
2022/04/14 06:37:11;;;;;;;19.40;14.13;;;12.00;99.90;;;;;;4893621;29;20236;-59
2022/04/14 06:39:39;;;;;;;21.43;15.30;;;12.00;99.90;;;;;;4896701;29;20248;-59
2022/04/14 06:42:08;;;;;;;18.93;14.20;;;12.00;99.90;;;;;;4896824;29;20258;-59
2022/04/14 06:44:36;;;;;;;20.47;14.77;;;12.00;99.90;;;;;;4896689;29;20252;-59
2022/04/14 06:47:04;;;;;;;17.77;15.17;;;12.10;99.90;;;;;;4898385;29;20609;-59
2022/04/14 06:49:34;;;;;;;20.73;16.63;;;12.10;99.90;;;;;;4896456;29;20601;-59
2022/04/14 06:52:03;;;;;;;18.80;15.17;;;12.20;99.90;;;;;;4900493;29;20732;-59
2022/04/14 06:54:31;;;;;;;17.53;13.53;;;12.20;99.90;;;;;;4896316;29;20323;-59
2022/04/14 06:56:59;;;;;;;18.90;15.37;;;12.20;99.90;;;;;;4896341;29;20245;-59
2022/04/14 06:59:28;;;;;;;21.40;15.87;;;12.30;99.90;;;;;;4897246;29;20607;-60
2022/04/14 07:01:56;;;;;;;19.57;15.27;;;12.30;99.90;;;;;;4900015;29;20308;-59
2022/04/14 07:04:25;;;;;;;23.07;17.27;;;12.40;99.90;;;;;;4896241;29;20245;-59
2022/04/14 07:06:54;;;;;;;19.70;15.27;;;12.50;99.90;;;;;;4896091;29;20244;-59
2022/04/14 07:09:24;;;;;;;21.00;16.73;;;12.60;99.90;;;;;;4895592;29;20617;-59
2022/04/14 07:11:53;;;;;;;23.43;17.17;;;12.70;99.90;;;;;;4895859;29;20252;-59
2022/04/14 07:14:21;;;;;;;20.37;15.53;;;12.80;99.90;;;;;;4896125;29;20244;-59
2022/04/14 07:16:49;;;;;;;20.53;16.03;;;13.00;99.90;;;;;;4895939;29;20241;-59
2022/04/14 07:19:17;;;;;;;20.00;16.07;;;13.20;99.90;;;;;;4895375;29;20322;-59
2022/04/14 07:21:46;;;;;;;22.83;16.37;;;13.40;99.90;;;;;;4896433;29;20621;-59
2022/04/14 07:24:15;;;;;;;19.63;16.93;;;13.50;99.90;;;;;;4896501;29;20299;-59
2022/04/14 07:26:44;;;;;;;25.13;17.00;;;13.70;99.90;;;;;;4897728;29;20263;-60
2022/04/14 07:29:13;;;;;;;21.83;17.37;;;13.80;99.90;;;;;;4896079;29;20246;-59
2022/04/14 07:31:42;;;;;;;21.83;15.37;;;13.90;99.90;;;;;;4892048;29;20275;-59
2022/04/14 07:34:11;;;;;;;23.70;17.43;;;14.00;99.90;;;;;;4895878;29;20243;-59
2022/04/14 07:36:42;;;;;;;21.77;16.53;;;14.00;99.90;;;;;;4895364;29;20245;-59
2022/04/14 07:39:10;;;;;;;23.13;17.13;;;14.10;99.90;;;;;;4895992;29;20241;-59
2022/04/14 07:41:40;;;;;;;23.23;17.17;;;14.20;99.90;;;;;;4895402;29;20229;-59
2022/04/14 07:44:08;;;;;;;24.10;17.50;;;14.30;99.90;;;;;;4895808;29;20634;-59
2022/04/14 07:46:38;;;;;;;22.30;17.57;;;14.20;99.90;;;;;;4901126;29;20255;-59
2022/04/14 07:49:07;;;;;;;22.63;17.33;;;14.20;99.90;;;;;;4895870;29;20249;-60
2022/04/14 07:51:35;;;;;;;21.70;17.67;;;14.20;99.90;;;;;;4899574;29;20783;-60
2022/04/14 07:54:03;;;;;;;24.37;17.93;;;14.20;99.90;;;;;;4895727;29;20675;-59
2022/04/14 07:56:31;;;;;;;26.47;18.40;;;14.10;99.90;;;;;;4898832;29;20252;-59
2022/04/14 07:59:01;;;;;;;25.43;18.63;;;14.00;99.90;;;;;;4895664;29;20328;-59
2022/04/14 08:01:29;;;;;;;27.27;19.20;;;14.00;99.90;;;;;;4894848;29;20241;-59
2022/04/14 08:03:58;;;;;;;25.80;19.13;;;13.90;99.90;;;;;;4895772;29;20712;-59
2022/04/14 08:06:27;;;;;;;26.57;19.57;;;13.90;99.90;;;;;;4894941;29;20229;-59
2022/04/14 08:08:56;;;;;;;26.43;19.93;;;13.90;99.90;;;;;;4895475;29;20280;-59
2022/04/14 08:11:24;;;;;;;27.70;22.30;;;14.00;99.90;;;;;;4895295;29;20714;-60
2022/04/14 08:13:52;;;;;;;29.17;22.10;;;14.10;99.90;;;;;;4895648;29;20283;-59
2022/04/14 08:16:21;;;;;;;29.17;22.53;;;14.20;99.90;;;;;;4895355;29;20740;-60
2022/04/14 08:18:50;;;;;;;31.27;22.47;;;14.40;99.90;;;;;;4897123;29;20733;-59
2022/04/14 08:21:19;;;;;;;29.53;22.30;;;14.50;99.90;;;;;;4900753;29;20247;-60
2022/04/14 08:23:47;;;;;;;27.93;21.43;;;14.60;99.90;;;;;;4899239;29;20241;-59
2022/04/14 08:26:16;;;;;;;28.57;22.37;;;14.70;99.90;;;;;;4899437;29;20736;-60
2022/04/14 08:28:46;;;;;;;28.30;22.53;;;14.60;99.90;;;;;;4899220;29;20245;-59
2022/04/14 08:31:15;;;;;;;25.03;21.03;;;14.50;99.90;;;;;;4899920;29;20240;-59
2022/04/14 08:33:45;;;;;;;24.80;20.53;;;14.60;99.90;;;;;;4898326;29;20245;-60
2022/04/14 08:36:15;;;;;;;27.10;20.23;;;14.70;99.90;;;;;;4897602;29;20291;-60
2022/04/14 08:38:46;;;;;;;23.57;19.77;;;14.90;99.90;;;;;;4897944;29;20713;-60
2022/04/14 08:41:17;;;;;;;24.53;19.23;;;14.90;99.90;;;;;;4897890;29;20293;-60
2022/04/14 08:43:50;;;;;;;24.63;19.73;;;15.10;99.90;;;;;;4897427;29;20245;-59
2022/04/14 08:46:20;;;;;;;24.97;19.60;;;15.30;99.90;;;;;;4897227;29;20237;-60
2022/04/14 08:48:55;;;;;;;24.73;19.50;;;15.20;99.90;;;;;;4897386;29;20709;-60
2022/04/14 08:51:23;;;;;;;21.80;18.37;;;15.20;99.90;;;;;;4901567;29;20240;-59
2022/04/14 08:53:51;;;;;;;23.27;18.47;;;15.50;99.90;;;;;;4897403;29;20251;-60
2022/04/14 08:56:24;;;;;;;21.57;17.40;;;15.70;99.90;;;;;;4897279;29;20241;-59
2022/04/14 08:58:55;;;;;;;20.87;17.80;;;16.00;99.90;;;;;;4897503;29;20241;-60
2022/04/14 09:01:27;;;;;;;23.33;17.60;;;16.30;99.90;;;;;;4898248;29;20244;-60
2022/04/14 09:03:58;;;;;;;19.80;16.43;;;16.50;99.90;;;;;;4897753;29;20241;-60
2022/04/14 09:06:29;;;;;;;20.87;17.87;;;16.70;99.90;;;;;;4896947;29;20260;-60
2022/04/14 09:08:59;;;;;;;21.60;17.23;;;17.00;99.90;;;;;;4897437;29;20305;-60
2022/04/14 09:11:29;;;;;;;22.27;16.63;;;17.10;99.90;;;;;;4897106;29;20324;-60
2022/04/14 09:14:00;;;;;;;18.90;15.77;;;17.30;99.90;;;;;;4897360;29;20241;-60
2022/04/14 09:16:30;;;;;;;18.50;15.20;;;17.40;99.90;;;;;;4896803;29;20242;-60
2022/04/14 09:19:03;;;;;;;17.97;14.77;;;17.80;99.90;;;;;;4899880;29;20236;-60
2022/04/14 09:21:32;;;;;;;18.40;14.57;;;18.10;99.90;;;;;;4897481;29;20255;-59
2022/04/14 09:24:00;;;;;;;19.80;15.57;;;18.00;99.90;;;;;;4897382;29;20266;-60
2022/04/14 09:26:28;;;;;;;19.93;15.27;;;17.90;99.90;;;;;;4896245;29;20326;-60
2022/04/14 09:29:06;;;;;;;20.07;15.33;;;18.40;99.90;;;;;;4897071;29;20338;-60
2022/04/14 09:31:48;;;;;;;17.80;13.60;;;18.20;99.90;;;;;;4896051;29;20260;-60
2022/04/14 09:34:19;;;;;;;17.33;13.50;;;18.30;99.90;;;;;;4859678;29;1113652;-60
2022/04/14 09:37:07;;;;;;;16.43;14.37;;;18.30;99.90;;;;;;4897781;29;20246;-60
2022/04/14 09:39:56;;;;;;;15.20;13.50;;;18.60;99.90;;;;;;4897827;29;20334;-60
2022/04/14 09:42:25;;;;;;;14.33;12.37;;;18.70;99.90;;;;;;4895781;29;20655;-60
2022/04/14 09:44:54;;;;;;;12.70;11.00;;;19.20;99.90;;;;;;4897896;29;20647;-59
2022/04/14 09:47:26;;;;;;;10.57;9.47;;;19.10;99.90;;;;;;4897318;29;20327;-60
2022/04/14 09:49:56;;;;;;;9.73;8.67;;;19.00;99.90;;;;;;4898221;29;20647;-59
2022/04/14 09:52:24;;;;;;;10.33;8.27;;;19.30;99.90;;;;;;4897646;29;20235;-59
2022/04/14 09:55:08;;;;;;;9.80;8.80;;;19.40;99.90;;;;;;4897640;29;20333;-60
2022/04/14 09:57:36;;;;;;;10.20;8.90;;;19.80;99.90;;;;;;4897543;29;20239;-60
2022/04/14 10:00:06;;;;;;;11.53;9.40;;;20.20;99.90;;;;;;4897555;29;20274;-59
2022/04/14 10:02:39;;;;;;;12.07;9.13;;;19.70;99.90;;;;;;4897261;29;20273;-59
2022/04/14 10:05:09;;;;;;;10.10;8.90;;;19.60;99.90;;;;;;4897372;29;20264;-60
2022/04/14 10:07:57;;;;;;;8.93;7.50;;;20.00;99.90;;;;;;4899274;29;20274;-60
2022/04/14 10:10:26;;;;;;;10.93;8.57;;;20.40;99.90;;;;;;4900435;29;20780;-58
2022/04/14 10:13:03;;;;;;;8.83;7.60;;;20.70;99.90;;;;;;4897343;29;20248;-60
2022/04/14 10:15:34;;;;;;;11.10;8.10;;;21.00;99.90;;;;;;4897026;29;20613;-60
2022/04/14 10:18:07;;;;;;;8.60;7.33;;;21.20;99.90;;;;;;4897351;29;20331;-59
2022/04/14 10:20:39;;;;;;;9.23;7.63;;;21.60;99.90;;;;;;4897211;29;20264;-59
2022/04/14 10:23:09;;;;;;;8.73;7.47;;;21.90;99.90;;;;;;4897092;29;20331;-59
2022/04/14 10:25:38;;;;;;;8.23;6.30;;;22.20;99.90;;;;;;4896843;29;20249;-59
2022/04/14 10:28:08;;;;;;;8.73;7.60;;;22.40;99.90;;;;;;4899124;29;20328;-59
2022/04/14 10:30:36;;;;;;;7.90;6.60;;;22.50;99.90;;;;;;4896627;29;20333;-59
2022/04/14 10:33:04;;;;;;;8.50;6.77;;;22.10;99.90;;;;;;4896852;29;20618;-59
2022/04/14 10:35:33;;;;;;;7.03;6.03;;;21.50;99.90;;;;;;4896684;29;20661;-59
2022/04/14 10:38:08;;;;;;;7.23;6.33;;;21.70;99.90;;;;;;4896843;29;20249;-59
2022/04/14 10:40:37;;;;;;;7.63;6.37;;;21.00;99.90;;;;;;4896691;29;20728;-59
2022/04/14 10:43:09;;;;;;;8.50;6.60;;;20.20;99.90;;;;;;4896186;29;20721;-60
2022/04/14 10:45:48;;;;;;;7.60;6.43;;;20.20;99.90;;;;;;4896839;29;20304;-59
2022/04/14 10:48:30;;;;;;;6.37;5.77;;;20.30;99.90;;;;;;4898879;29;20241;-60
2022/04/14 10:51:24;;;;;;;6.73;5.53;;;20.70;99.90;;;;;;4896505;29;20283;-59
2022/04/14 10:54:00;;;;;;;7.77;6.63;;;20.40;99.90;;;;;;4896612;29;20248;-59
2022/04/14 10:56:51;;;;;;;8.60;6.60;;;20.20;99.90;;;;;;4896361;29;20295;-59
2022/04/14 10:59:43;;;;;;;7.90;6.87;;;19.60;99.90;;;;;;4897313;29;20255;-60
2022/04/14 11:02:12;;;;;;;9.70;6.90;;;19.20;99.90;;;;;;4893143;29;20323;-59
2022/04/14 11:04:51;;;;;;;9.00;7.10;;;19.10;99.90;;;;;;4896571;29;20247;-59
2022/04/14 11:07:21;;;;;;;8.20;6.30;;;19.50;99.90;;;;;;4893723;29;20252;-60
2022/04/14 11:09:57;;;;;;;6.73;6.03;;;19.10;99.90;;;;;;4896100;29;20335;-59
2022/04/14 11:12:27;;;;;;;7.07;5.83;;;18.80;99.90;;;;;;4896130;29;20243;-60
2022/04/14 11:14:57;;;;;;;6.30;5.70;;;19.00;99.90;;;;;;4896371;29;20654;-59
2022/04/14 11:17:53;;;;;;;8.47;6.77;;;19.00;99.90;;;;;;4896051;29;20327;-59
2022/04/14 11:20:54;;;;;;;6.53;5.93;;;19.10;99.90;;;;;;4900331;29;20239;-60
2022/04/14 11:23:28;;;;;;;6.73;6.00;;;19.00;99.90;;;;;;4896101;29;20244;-59
2022/04/14 11:26:34;;;;;;;6.20;5.20;;;19.10;99.90;;;;;;4895517;29;20240;-60
2022/04/14 11:29:05;;;;;;;6.03;5.20;;;18.80;99.90;;;;;;4891560;29;20333;-59
2022/04/14 11:31:34;;;;;;;5.70;5.20;;;18.60;99.90;;;;;;4895289;29;20300;-60
2022/04/14 11:34:05;;;;;;;8.43;5.87;;;18.30;99.90;;;;;;4895410;29;20251;-59
2022/04/14 11:36:46;;;;;;;6.87;6.07;;;18.20;99.90;;;;;;4895607;29;20240;-60
2022/04/14 11:39:23;;;;;;;7.50;6.30;;;18.10;99.90;;;;;;4894385;29;20272;-60
2022/04/14 11:41:54;;;;;;;7.53;5.90;;;17.90;99.90;;;;;;4895633;29;20253;-59
2022/04/14 11:44:26;;;;;;;6.30;5.70;;;17.60;99.90;;;;;;4895985;29;20330;-59
2022/04/14 11:46:56;;;;;;;7.43;5.90;;;17.40;99.90;;;;;;4895469;29;20244;-60
2022/04/14 11:49:26;;;;;;;6.53;5.60;;;17.50;99.90;;;;;;4895733;29;20302;-60
2022/04/14 11:51:55;;;;;;;7.80;6.27;;;18.00;99.90;;;;;;4896328;29;20777;-59
2022/04/14 11:54:34;;;;;;;7.43;6.67;;;18.10;99.90;;;;;;4895544;29;20247;-60
2022/04/14 11:57:10;;;;;;;7.67;6.97;;;17.80;99.90;;;;;;4895572;29;20776;-59
2022/04/14 11:59:41;;;;;;;8.10;7.00;;;17.60;99.90;;;;;;4895499;29;20243;-59
2022/04/14 12:02:12;;;;;;;7.20;6.50;;;17.50;99.90;;;;;;4895542;29;20270;-60
2022/04/14 12:04:41;;;;;;;8.13;6.10;;;17.20;99.90;;;;;;4895602;29;20275;-59
2022/04/14 12:07:10;;;;;;;8.90;6.80;;;17.20;99.90;;;;;;4895168;29;20249;-60
2022/04/14 12:09:38;;;;;;;7.70;6.93;;;17.20;99.90;;;;;;4895435;29;20692;-60
2022/04/14 12:12:13;;;;;;;7.33;6.53;;;17.30;99.90;;;;;;4895354;29;20243;-59
2022/04/14 12:14:42;;;;;;;8.70;6.87;;;17.50;99.90;;;;;;4895501;29;20302;-60
2022/04/14 12:17:11;;;;;;;9.03;6.90;;;17.30;99.90;;;;;;4895584;29;20242;-60
2022/04/14 12:19:44;;;;;;;8.00;6.93;;;17.20;99.90;;;;;;4895218;29;20243;-59
2022/04/14 12:22:14;;;;;;;7.67;6.60;;;17.10;99.90;;;;;;4892265;29;20242;-59
2022/04/14 12:24:48;;;;;;;7.97;6.27;;;17.00;99.90;;;;;;4895478;29;20243;-60
2022/04/14 12:27:22;;;;;;;8.07;6.73;;;17.00;99.90;;;;;;4892741;29;20321;-60
2022/04/14 12:29:52;;;;;;;8.00;6.87;;;16.90;99.90;;;;;;4894578;29;20257;-59
2022/04/14 12:32:25;;;;;;;8.47;7.13;;;16.80;99.90;;;;;;4895249;29;20272;-59
2022/04/14 12:34:53;;;;;;;7.53;6.73;;;16.80;99.90;;;;;;4895459;29;20249;-60
2022/04/14 12:37:22;;;;;;;8.93;7.27;;;16.60;99.90;;;;;;4895198;29;20276;-59
2022/04/14 12:40:01;;;;;;;7.80;6.77;;;16.60;99.90;;;;;;4895503;29;20278;-59
2022/04/14 12:42:32;;;;;;;7.63;6.83;;;16.60;99.90;;;;;;4895099;29;20304;-60
2022/04/14 12:45:05;;;;;;;7.17;6.47;;;16.40;99.90;;;;;;4895354;29;20710;-59
2022/04/14 12:47:34;;;;;;;8.67;7.13;;;16.30;99.90;;;;;;4894955;29;20647;-60